sensor_id;sensor_type;location;lat;lon;timestamp;P1;durP1;ratioP1;P2;durP2;ratioP2
76552;SDS011;65395;53.168;18.156;2023-03-31T00:01:51;11.00;;;8.10;;
76552;SDS011;65395;53.168;18.156;2023-03-31T00:04:18;13.10;;;8.10;;
76552;SDS011;65395;53.168;18.156;2023-03-31T00:06:49;9.30;;;7.70;;
76552;SDS011;65395;53.168;18.156;2023-03-31T00:09:19;13.00;;;8.00;;
76552;SDS011;65395;53.168;18.156;2023-03-31T00:11:48;10.80;;;8.20;;
76552;SDS011;65395;53.168;18.156;2023-03-31T00:14:15;12.10;;;8.30;;
76552;SDS011;65395;53.168;18.156;2023-03-31T00:16:44;10.10;;;7.70;;
76552;SDS011;65395;53.168;18.156;2023-03-31T00:19:11;10.20;;;7.80;;
76552;SDS011;65395;53.168;18.156;2023-03-31T00:21:43;12.50;;;7.70;;
76552;SDS011;65395;53.168;18.156;2023-03-31T00:24:11;8.10;;;6.30;;
76552;SDS011;65395;53.168;18.156;2023-03-31T00:26:38;10.10;;;7.30;;
76552;SDS011;65395;53.168;18.156;2023-03-31T00:29:05;10.00;;;7.10;;
76552;SDS011;65395;53.168;18.156;2023-03-31T00:31:34;11.10;;;8.30;;
76552;SDS011;65395;53.168;18.156;2023-03-31T00:34:01;11.70;;;8.10;;
76552;SDS011;65395;53.168;18.156;2023-03-31T00:36:28;14.50;;;9.50;;
76552;SDS011;65395;53.168;18.156;2023-03-31T00:38:55;12.90;;;8.70;;
76552;SDS011;65395;53.168;18.156;2023-03-31T00:41:28;12.70;;;8.90;;
76552;SDS011;65395;53.168;18.156;2023-03-31T00:46:41;13.80;;;9.00;;
76552;SDS011;65395;53.168;18.156;2023-03-31T00:49:15;13.10;;;8.40;;
76552;SDS011;65395;53.168;18.156;2023-03-31T00:51:49;13.90;;;8.30;;
76552;SDS011;65395;53.168;18.156;2023-03-31T00:54:20;10.90;;;8.00;;
76552;SDS011;65395;53.168;18.156;2023-03-31T00:56:51;16.00;;;8.90;;
76552;SDS011;65395;53.168;18.156;2023-03-31T00:59:21;13.50;;;9.10;;
76552;SDS011;65395;53.168;18.156;2023-03-31T01:01:53;17.10;;;10.00;;
76552;SDS011;65395;53.168;18.156;2023-03-31T01:04:24;14.80;;;9.20;;
76552;SDS011;65395;53.168;18.156;2023-03-31T01:06:54;14.70;;;10.00;;
76552;SDS011;65395;53.168;18.156;2023-03-31T01:09:29;14.00;;;9.40;;
76552;SDS011;65395;53.168;18.156;2023-03-31T01:12:02;17.20;;;9.80;;
76552;SDS011;65395;53.168;18.156;2023-03-31T01:14:32;16.40;;;9.30;;
76552;SDS011;65395;53.168;18.156;2023-03-31T01:16:59;12.40;;;9.10;;
76552;SDS011;65395;53.168;18.156;2023-03-31T01:19:34;16.90;;;9.20;;
76552;SDS011;65395;53.168;18.156;2023-03-31T01:22:33;18.10;;;9.40;;
76552;SDS011;65395;53.168;18.156;2023-03-31T01:25:29;16.90;;;9.50;;
76552;SDS011;65395;53.168;18.156;2023-03-31T01:28:17;16.80;;;9.90;;
76552;SDS011;65395;53.168;18.156;2023-03-31T01:36:49;19.60;;;13.00;;
76552;SDS011;65395;53.168;18.156;2023-03-31T01:39:46;23.50;;;13.30;;
76552;SDS011;65395;53.168;18.156;2023-03-31T01:42:28;17.90;;;11.70;;
76552;SDS011;65395;53.168;18.156;2023-03-31T01:45:11;18.20;;;11.10;;
76552;SDS011;65395;53.168;18.156;2023-03-31T01:47:54;14.70;;;10.80;;
76552;SDS011;65395;53.168;18.156;2023-03-31T01:50:28;15.10;;;10.60;;
76552;SDS011;65395;53.168;18.156;2023-03-31T01:58:33;35.10;;;18.70;;
76552;SDS011;65395;53.168;18.156;2023-03-31T02:01:10;35.70;;;21.50;;
76552;SDS011;65395;53.168;18.156;2023-03-31T02:03:54;38.50;;;23.20;;
76552;SDS011;65395;53.168;18.156;2023-03-31T02:06:26;38.60;;;22.20;;
76552;SDS011;65395;53.168;18.156;2023-03-31T02:09:01;30.30;;;17.90;;
76552;SDS011;65395;53.168;18.156;2023-03-31T02:11:32;28.30;;;17.10;;
76552;SDS011;65395;53.168;18.156;2023-03-31T02:14:00;25.90;;;16.40;;
76552;SDS011;65395;53.168;18.156;2023-03-31T02:16:32;23.50;;;14.00;;
76552;SDS011;65395;53.168;18.156;2023-03-31T02:19:03;22.10;;;14.00;;
76552;SDS011;65395;53.168;18.156;2023-03-31T02:21:31;22.80;;;14.20;;
76552;SDS011;65395;53.168;18.156;2023-03-31T02:24:01;21.60;;;12.70;;
76552;SDS011;65395;53.168;18.156;2023-03-31T02:26:33;19.40;;;12.30;;
76552;SDS011;65395;53.168;18.156;2023-03-31T02:29:04;19.30;;;11.90;;
76552;SDS011;65395;53.168;18.156;2023-03-31T02:34:15;19.20;;;11.40;;
76552;SDS011;65395;53.168;18.156;2023-03-31T02:36:42;19.80;;;11.50;;
76552;SDS011;65395;53.168;18.156;2023-03-31T02:39:13;17.70;;;11.30;;
76552;SDS011;65395;53.168;18.156;2023-03-31T02:41:45;19.00;;;10.70;;
76552;SDS011;65395;53.168;18.156;2023-03-31T02:44:12;18.60;;;10.70;;
76552;SDS011;65395;53.168;18.156;2023-03-31T02:46:40;16.50;;;10.00;;
76552;SDS011;65395;53.168;18.156;2023-03-31T02:49:08;14.70;;;9.20;;
76552;SDS011;65395;53.168;18.156;2023-03-31T03:00:40;14.90;;;9.50;;
76552;SDS011;65395;53.168;18.156;2023-03-31T03:03:21;15.10;;;9.80;;
76552;SDS011;65395;53.168;18.156;2023-03-31T03:06:15;16.70;;;10.20;;
76552;SDS011;65395;53.168;18.156;2023-03-31T03:12:02;18.20;;;9.70;;
76552;SDS011;65395;53.168;18.156;2023-03-31T03:14:43;14.50;;;8.80;;
76552;SDS011;65395;53.168;18.156;2023-03-31T03:17:20;15.80;;;8.30;;
76552;SDS011;65395;53.168;18.156;2023-03-31T03:19:53;13.00;;;8.40;;
76552;SDS011;65395;53.168;18.156;2023-03-31T03:22:22;13.50;;;8.30;;
76552;SDS011;65395;53.168;18.156;2023-03-31T03:24:49;14.70;;;8.60;;
76552;SDS011;65395;53.168;18.156;2023-03-31T03:27:17;15.30;;;8.20;;
76552;SDS011;65395;53.168;18.156;2023-03-31T03:29:45;15.90;;;7.90;;
76552;SDS011;65395;53.168;18.156;2023-03-31T03:32:12;13.40;;;8.00;;
76552;SDS011;65395;53.168;18.156;2023-03-31T03:34:39;18.20;;;7.50;;
76552;SDS011;65395;53.168;18.156;2023-03-31T03:37:06;12.70;;;7.40;;
76552;SDS011;65395;53.168;18.156;2023-03-31T03:39:33;11.90;;;7.40;;
76552;SDS011;65395;53.168;18.156;2023-03-31T03:41:59;14.10;;;6.30;;
76552;SDS011;65395;53.168;18.156;2023-03-31T03:44:26;10.70;;;6.50;;
76552;SDS011;65395;53.168;18.156;2023-03-31T03:46:53;9.40;;;7.10;;
76552;SDS011;65395;53.168;18.156;2023-03-31T03:49:20;10.00;;;6.50;;
76552;SDS011;65395;53.168;18.156;2023-03-31T03:51:46;12.80;;;6.00;;
76552;SDS011;65395;53.168;18.156;2023-03-31T03:54:13;7.80;;;5.50;;
76552;SDS011;65395;53.168;18.156;2023-03-31T03:56:40;8.80;;;5.30;;
76552;SDS011;65395;53.168;18.156;2023-03-31T03:59:07;8.10;;;4.70;;
76552;SDS011;65395;53.168;18.156;2023-03-31T04:01:33;8.20;;;4.40;;
76552;SDS011;65395;53.168;18.156;2023-03-31T04:04:01;6.70;;;4.10;;
76552;SDS011;65395;53.168;18.156;2023-03-31T04:06:28;8.90;;;4.30;;
76552;SDS011;65395;53.168;18.156;2023-03-31T04:08:55;8.00;;;4.10;;
76552;SDS011;65395;53.168;18.156;2023-03-31T04:11:22;6.20;;;3.60;;
76552;SDS011;65395;53.168;18.156;2023-03-31T04:13:49;8.10;;;3.80;;
76552;SDS011;65395;53.168;18.156;2023-03-31T04:16:16;7.80;;;3.90;;
76552;SDS011;65395;53.168;18.156;2023-03-31T04:18:42;6.10;;;3.70;;
76552;SDS011;65395;53.168;18.156;2023-03-31T04:21:10;10.30;;;4.00;;
76552;SDS011;65395;53.168;18.156;2023-03-31T04:23:41;8.60;;;4.10;;
76552;SDS011;65395;53.168;18.156;2023-03-31T04:26:12;8.00;;;3.90;;
76552;SDS011;65395;53.168;18.156;2023-03-31T04:28:40;8.00;;;4.10;;
76552;SDS011;65395;53.168;18.156;2023-03-31T04:31:12;9.00;;;3.70;;
76552;SDS011;65395;53.168;18.156;2023-03-31T04:33:41;6.00;;;3.30;;
76552;SDS011;65395;53.168;18.156;2023-03-31T04:36:11;7.70;;;3.90;;
76552;SDS011;65395;53.168;18.156;2023-03-31T04:38:46;6.60;;;3.80;;
76552;SDS011;65395;53.168;18.156;2023-03-31T04:41:16;6.20;;;3.70;;
76552;SDS011;65395;53.168;18.156;2023-03-31T04:43:43;8.20;;;4.00;;
76552;SDS011;65395;53.168;18.156;2023-03-31T04:46:10;7.50;;;4.10;;
76552;SDS011;65395;53.168;18.156;2023-03-31T04:48:36;7.20;;;4.00;;
76552;SDS011;65395;53.168;18.156;2023-03-31T04:51:03;7.60;;;4.30;;
76552;SDS011;65395;53.168;18.156;2023-03-31T04:53:31;7.40;;;3.90;;
76552;SDS011;65395;53.168;18.156;2023-03-31T04:55:59;7.50;;;4.10;;
76552;SDS011;65395;53.168;18.156;2023-03-31T04:58:26;9.20;;;4.30;;
76552;SDS011;65395;53.168;18.156;2023-03-31T05:00:53;7.40;;;4.00;;
76552;SDS011;65395;53.168;18.156;2023-03-31T05:03:19;8.80;;;4.00;;
76552;SDS011;65395;53.168;18.156;2023-03-31T05:05:46;9.60;;;4.30;;
76552;SDS011;65395;53.168;18.156;2023-03-31T05:08:13;8.20;;;4.60;;
76552;SDS011;65395;53.168;18.156;2023-03-31T05:10:40;7.00;;;4.40;;
76552;SDS011;65395;53.168;18.156;2023-03-31T05:13:08;6.40;;;4.20;;
76552;SDS011;65395;53.168;18.156;2023-03-31T05:15:36;8.70;;;4.30;;
76552;SDS011;65395;53.168;18.156;2023-03-31T05:18:05;6.20;;;3.70;;
76552;SDS011;65395;53.168;18.156;2023-03-31T05:20:32;9.00;;;4.10;;
76552;SDS011;65395;53.168;18.156;2023-03-31T05:22:59;7.10;;;4.10;;
76552;SDS011;65395;53.168;18.156;2023-03-31T05:25:26;8.00;;;4.30;;
76552;SDS011;65395;53.168;18.156;2023-03-31T05:27:58;8.80;;;4.70;;
76552;SDS011;65395;53.168;18.156;2023-03-31T05:30:26;7.40;;;4.40;;
76552;SDS011;65395;53.168;18.156;2023-03-31T05:32:53;7.20;;;4.80;;
76552;SDS011;65395;53.168;18.156;2023-03-31T05:35:20;9.80;;;5.10;;
76552;SDS011;65395;53.168;18.156;2023-03-31T05:37:47;10.70;;;5.40;;
76552;SDS011;65395;53.168;18.156;2023-03-31T05:40:14;12.10;;;4.80;;
76552;SDS011;65395;53.168;18.156;2023-03-31T05:42:41;9.90;;;4.80;;
76552;SDS011;65395;53.168;18.156;2023-03-31T05:45:08;10.00;;;4.80;;
76552;SDS011;65395;53.168;18.156;2023-03-31T05:47:35;9.00;;;5.30;;
76552;SDS011;65395;53.168;18.156;2023-03-31T05:50:02;8.50;;;5.30;;
76552;SDS011;65395;53.168;18.156;2023-03-31T05:52:32;11.00;;;5.90;;
76552;SDS011;65395;53.168;18.156;2023-03-31T05:54:59;11.80;;;6.30;;
76552;SDS011;65395;53.168;18.156;2023-03-31T05:57:26;15.30;;;7.60;;
76552;SDS011;65395;53.168;18.156;2023-03-31T05:59:53;10.90;;;6.40;;
76552;SDS011;65395;53.168;18.156;2023-03-31T06:02:19;12.30;;;6.20;;
76552;SDS011;65395;53.168;18.156;2023-03-31T06:04:46;11.40;;;6.10;;
76552;SDS011;65395;53.168;18.156;2023-03-31T06:07:13;11.80;;;5.50;;
76552;SDS011;65395;53.168;18.156;2023-03-31T06:09:40;6.40;;;4.60;;
76552;SDS011;65395;53.168;18.156;2023-03-31T06:12:06;7.40;;;4.60;;
76552;SDS011;65395;53.168;18.156;2023-03-31T06:14:33;12.20;;;5.60;;
76552;SDS011;65395;53.168;18.156;2023-03-31T06:17:00;9.00;;;5.10;;
76552;SDS011;65395;53.168;18.156;2023-03-31T06:19:27;11.80;;;4.90;;
76552;SDS011;65395;53.168;18.156;2023-03-31T06:21:54;9.00;;;5.20;;
76552;SDS011;65395;53.168;18.156;2023-03-31T06:24:20;9.20;;;5.20;;
76552;SDS011;65395;53.168;18.156;2023-03-31T06:26:47;11.30;;;5.70;;
76552;SDS011;65395;53.168;18.156;2023-03-31T06:29:14;10.10;;;5.70;;
76552;SDS011;65395;53.168;18.156;2023-03-31T06:31:40;8.10;;;5.40;;
76552;SDS011;65395;53.168;18.156;2023-03-31T06:34:07;7.00;;;4.70;;
76552;SDS011;65395;53.168;18.156;2023-03-31T06:36:34;11.30;;;5.20;;
76552;SDS011;65395;53.168;18.156;2023-03-31T06:39:01;7.80;;;5.20;;
76552;SDS011;65395;53.168;18.156;2023-03-31T06:41:29;8.70;;;5.10;;
76552;SDS011;65395;53.168;18.156;2023-03-31T06:43:56;7.10;;;4.70;;
76552;SDS011;65395;53.168;18.156;2023-03-31T06:46:26;9.60;;;4.90;;
76552;SDS011;65395;53.168;18.156;2023-03-31T06:48:53;9.90;;;4.60;;
76552;SDS011;65395;53.168;18.156;2023-03-31T06:51:20;9.40;;;4.90;;
76552;SDS011;65395;53.168;18.156;2023-03-31T06:53:46;9.10;;;5.00;;
76552;SDS011;65395;53.168;18.156;2023-03-31T06:56:13;10.60;;;4.50;;
76552;SDS011;65395;53.168;18.156;2023-03-31T06:58:40;8.20;;;4.50;;
76552;SDS011;65395;53.168;18.156;2023-03-31T07:01:07;8.30;;;4.50;;
76552;SDS011;65395;53.168;18.156;2023-03-31T07:03:34;9.40;;;4.90;;
76552;SDS011;65395;53.168;18.156;2023-03-31T07:06:00;6.60;;;4.10;;
76552;SDS011;65395;53.168;18.156;2023-03-31T07:08:27;8.00;;;4.00;;
76552;SDS011;65395;53.168;18.156;2023-03-31T07:10:55;11.10;;;4.50;;
76552;SDS011;65395;53.168;18.156;2023-03-31T07:13:23;6.50;;;4.10;;
76552;SDS011;65395;53.168;18.156;2023-03-31T07:15:51;10.90;;;5.00;;
76552;SDS011;65395;53.168;18.156;2023-03-31T07:18:18;9.40;;;4.90;;
76552;SDS011;65395;53.168;18.156;2023-03-31T07:20:47;11.90;;;5.40;;
76552;SDS011;65395;53.168;18.156;2023-03-31T07:23:15;9.80;;;4.50;;
76552;SDS011;65395;53.168;18.156;2023-03-31T07:25:42;6.70;;;4.50;;
76552;SDS011;65395;53.168;18.156;2023-03-31T07:28:10;6.20;;;4.40;;
76552;SDS011;65395;53.168;18.156;2023-03-31T07:30:37;8.40;;;4.10;;
76552;SDS011;65395;53.168;18.156;2023-03-31T07:33:06;5.60;;;3.70;;
76552;SDS011;65395;53.168;18.156;2023-03-31T07:35:36;7.00;;;4.40;;
76552;SDS011;65395;53.168;18.156;2023-03-31T07:38:03;10.50;;;4.50;;
76552;SDS011;65395;53.168;18.156;2023-03-31T07:40:30;7.80;;;4.60;;
76552;SDS011;65395;53.168;18.156;2023-03-31T07:42:57;10.10;;;5.20;;
76552;SDS011;65395;53.168;18.156;2023-03-31T07:45:24;9.80;;;4.70;;
76552;SDS011;65395;53.168;18.156;2023-03-31T07:47:52;8.30;;;4.40;;
76552;SDS011;65395;53.168;18.156;2023-03-31T07:50:19;8.00;;;4.50;;
76552;SDS011;65395;53.168;18.156;2023-03-31T07:52:48;7.20;;;4.40;;
76552;SDS011;65395;53.168;18.156;2023-03-31T07:55:17;10.50;;;4.70;;
76552;SDS011;65395;53.168;18.156;2023-03-31T07:57:45;10.40;;;4.90;;
76552;SDS011;65395;53.168;18.156;2023-03-31T08:00:20;8.90;;;4.50;;
76552;SDS011;65395;53.168;18.156;2023-03-31T08:02:47;8.60;;;4.50;;
76552;SDS011;65395;53.168;18.156;2023-03-31T08:05:15;9.30;;;4.40;;
76552;SDS011;65395;53.168;18.156;2023-03-31T08:07:45;6.20;;;4.40;;
76552;SDS011;65395;53.168;18.156;2023-03-31T08:10:15;8.10;;;4.30;;
76552;SDS011;65395;53.168;18.156;2023-03-31T08:12:45;7.50;;;3.80;;
76552;SDS011;65395;53.168;18.156;2023-03-31T08:15:12;6.50;;;3.80;;
76552;SDS011;65395;53.168;18.156;2023-03-31T08:17:39;6.90;;;4.00;;
76552;SDS011;65395;53.168;18.156;2023-03-31T08:20:06;7.80;;;4.30;;
76552;SDS011;65395;53.168;18.156;2023-03-31T08:22:36;9.40;;;4.40;;
76552;SDS011;65395;53.168;18.156;2023-03-31T08:25:04;8.30;;;4.00;;
76552;SDS011;65395;53.168;18.156;2023-03-31T08:27:32;8.70;;;4.00;;
76552;SDS011;65395;53.168;18.156;2023-03-31T08:30:01;6.10;;;3.80;;
76552;SDS011;65395;53.168;18.156;2023-03-31T08:32:30;6.40;;;3.60;;
76552;SDS011;65395;53.168;18.156;2023-03-31T08:34:58;7.40;;;3.60;;
76552;SDS011;65395;53.168;18.156;2023-03-31T08:37:25;7.50;;;3.40;;
76552;SDS011;65395;53.168;18.156;2023-03-31T08:39:53;6.90;;;3.80;;
76552;SDS011;65395;53.168;18.156;2023-03-31T08:45:14;8.60;;;4.10;;
76552;SDS011;65395;53.168;18.156;2023-03-31T08:47:49;6.50;;;3.80;;
76552;SDS011;65395;53.168;18.156;2023-03-31T08:50:22;7.40;;;4.50;;
76552;SDS011;65395;53.168;18.156;2023-03-31T08:52:58;6.70;;;4.20;;
76552;SDS011;65395;53.168;18.156;2023-03-31T08:58:32;9.90;;;4.10;;
76552;SDS011;65395;53.168;18.156;2023-03-31T09:01:07;8.30;;;4.70;;
76552;SDS011;65395;53.168;18.156;2023-03-31T09:04:02;8.50;;;4.10;;
76552;SDS011;65395;53.168;18.156;2023-03-31T09:06:56;12.60;;;4.90;;
76552;SDS011;65395;53.168;18.156;2023-03-31T09:12:19;8.00;;;4.20;;
76552;SDS011;65395;53.168;18.156;2023-03-31T09:14:56;7.70;;;4.20;;
76552;SDS011;65395;53.168;18.156;2023-03-31T09:17:29;8.10;;;4.60;;
76552;SDS011;65395;53.168;18.156;2023-03-31T09:20:03;7.30;;;4.40;;
76552;SDS011;65395;53.168;18.156;2023-03-31T09:22:40;10.70;;;5.00;;
76552;SDS011;65395;53.168;18.156;2023-03-31T09:27:52;9.00;;;4.60;;
76552;SDS011;65395;53.168;18.156;2023-03-31T09:30:29;12.50;;;4.70;;
76552;SDS011;65395;53.168;18.156;2023-03-31T09:33:09;6.50;;;4.50;;
76552;SDS011;65395;53.168;18.156;2023-03-31T09:35:39;8.50;;;4.50;;
76552;SDS011;65395;53.168;18.156;2023-03-31T09:38:08;9.00;;;4.20;;
76552;SDS011;65395;53.168;18.156;2023-03-31T09:40:37;10.30;;;5.00;;
76552;SDS011;65395;53.168;18.156;2023-03-31T09:43:05;9.60;;;5.00;;
76552;SDS011;65395;53.168;18.156;2023-03-31T09:45:36;9.00;;;4.70;;
76552;SDS011;65395;53.168;18.156;2023-03-31T09:48:03;8.70;;;4.40;;
76552;SDS011;65395;53.168;18.156;2023-03-31T09:50:41;8.90;;;4.20;;
76552;SDS011;65395;53.168;18.156;2023-03-31T09:53:31;12.40;;;4.40;;
76552;SDS011;65395;53.168;18.156;2023-03-31T09:56:04;12.20;;;4.20;;
76552;SDS011;65395;53.168;18.156;2023-03-31T09:58:40;10.50;;;4.30;;
76552;SDS011;65395;53.168;18.156;2023-03-31T10:01:09;9.60;;;4.40;;
76552;SDS011;65395;53.168;18.156;2023-03-31T10:06:17;9.10;;;4.10;;
76552;SDS011;65395;53.168;18.156;2023-03-31T10:11:23;9.30;;;4.30;;
76552;SDS011;65395;53.168;18.156;2023-03-31T10:14:02;8.40;;;3.80;;
76552;SDS011;65395;53.168;18.156;2023-03-31T10:16:41;10.20;;;3.80;;
76552;SDS011;65395;53.168;18.156;2023-03-31T10:19:16;11.10;;;4.10;;
76552;SDS011;65395;53.168;18.156;2023-03-31T10:21:55;8.00;;;4.00;;
76552;SDS011;65395;53.168;18.156;2023-03-31T10:24:25;11.40;;;4.00;;
76552;SDS011;65395;53.168;18.156;2023-03-31T10:27:01;8.00;;;3.30;;
76552;SDS011;65395;53.168;18.156;2023-03-31T10:29:32;7.80;;;3.70;;
76552;SDS011;65395;53.168;18.156;2023-03-31T10:32:02;9.10;;;3.80;;
76552;SDS011;65395;53.168;18.156;2023-03-31T10:34:31;8.30;;;3.70;;
76552;SDS011;65395;53.168;18.156;2023-03-31T10:36:59;10.60;;;3.80;;
76552;SDS011;65395;53.168;18.156;2023-03-31T10:39:30;11.50;;;3.80;;
76552;SDS011;65395;53.168;18.156;2023-03-31T10:41:58;13.20;;;4.00;;
76552;SDS011;65395;53.168;18.156;2023-03-31T10:44:30;10.70;;;3.90;;
76552;SDS011;65395;53.168;18.156;2023-03-31T10:47:15;10.80;;;3.80;;
76552;SDS011;65395;53.168;18.156;2023-03-31T10:49:46;10.10;;;3.70;;
76552;SDS011;65395;53.168;18.156;2023-03-31T10:52:17;9.10;;;3.70;;
76552;SDS011;65395;53.168;18.156;2023-03-31T10:54:48;9.90;;;4.10;;
76552;SDS011;65395;53.168;18.156;2023-03-31T10:57:21;10.90;;;4.20;;
76552;SDS011;65395;53.168;18.156;2023-03-31T11:00:02;11.30;;;4.30;;
76552;SDS011;65395;53.168;18.156;2023-03-31T11:02:50;10.10;;;3.70;;
76552;SDS011;65395;53.168;18.156;2023-03-31T11:11:29;10.60;;;4.00;;
76552;SDS011;65395;53.168;18.156;2023-03-31T11:14:27;10.10;;;3.40;;
76552;SDS011;65395;53.168;18.156;2023-03-31T11:17:10;9.80;;;3.50;;
76552;SDS011;65395;53.168;18.156;2023-03-31T11:23:05;8.40;;;3.40;;
76552;SDS011;65395;53.168;18.156;2023-03-31T11:25:38;7.00;;;3.30;;
76552;SDS011;65395;53.168;18.156;2023-03-31T11:31:12;9.40;;;3.10;;
76552;SDS011;65395;53.168;18.156;2023-03-31T11:34:00;7.20;;;3.40;;
76552;SDS011;65395;53.168;18.156;2023-03-31T11:39:32;7.50;;;3.40;;
76552;SDS011;65395;53.168;18.156;2023-03-31T11:42:17;7.40;;;3.40;;
76552;SDS011;65395;53.168;18.156;2023-03-31T11:44:49;9.50;;;3.70;;
76552;SDS011;65395;53.168;18.156;2023-03-31T11:47:23;8.70;;;2.70;;
76552;SDS011;65395;53.168;18.156;2023-03-31T11:49:55;8.50;;;2.90;;
76552;SDS011;65395;53.168;18.156;2023-03-31T11:52:26;4.90;;;2.40;;
76552;SDS011;65395;53.168;18.156;2023-03-31T11:57:45;7.10;;;2.90;;
76552;SDS011;65395;53.168;18.156;2023-03-31T12:00:26;8.90;;;3.50;;
76552;SDS011;65395;53.168;18.156;2023-03-31T12:03:02;7.20;;;2.80;;
76552;SDS011;65395;53.168;18.156;2023-03-31T12:05:37;7.80;;;3.20;;
76552;SDS011;65395;53.168;18.156;2023-03-31T12:08:11;9.20;;;3.70;;
76552;SDS011;65395;53.168;18.156;2023-03-31T12:10:50;9.60;;;3.40;;
76552;SDS011;65395;53.168;18.156;2023-03-31T12:16:08;6.50;;;3.40;;
76552;SDS011;65395;53.168;18.156;2023-03-31T12:18:55;6.30;;;2.70;;
76552;SDS011;65395;53.168;18.156;2023-03-31T12:21:33;6.30;;;2.90;;
76552;SDS011;65395;53.168;18.156;2023-03-31T12:24:04;6.70;;;2.80;;
76552;SDS011;65395;53.168;18.156;2023-03-31T12:26:33;7.30;;;2.70;;
76552;SDS011;65395;53.168;18.156;2023-03-31T12:29:16;9.40;;;3.00;;
76552;SDS011;65395;53.168;18.156;2023-03-31T12:31:52;6.90;;;2.80;;
76552;SDS011;65395;53.168;18.156;2023-03-31T12:34:22;7.30;;;2.70;;
76552;SDS011;65395;53.168;18.156;2023-03-31T12:36:57;6.50;;;2.40;;
76552;SDS011;65395;53.168;18.156;2023-03-31T12:39:52;8.80;;;2.80;;
76552;SDS011;65395;53.168;18.156;2023-03-31T12:48:10;6.90;;;2.30;;
76552;SDS011;65395;53.168;18.156;2023-03-31T12:50:54;6.20;;;1.90;;
76552;SDS011;65395;53.168;18.156;2023-03-31T12:56:23;6.90;;;2.10;;
76552;SDS011;65395;53.168;18.156;2023-03-31T12:58:49;5.20;;;2.10;;
76552;SDS011;65395;53.168;18.156;2023-03-31T13:01:17;6.00;;;2.10;;
76552;SDS011;65395;53.168;18.156;2023-03-31T13:04:06;7.30;;;2.60;;
76552;SDS011;65395;53.168;18.156;2023-03-31T13:06:45;7.70;;;2.30;;
76552;SDS011;65395;53.168;18.156;2023-03-31T13:09:37;5.00;;;2.30;;
76552;SDS011;65395;53.168;18.156;2023-03-31T13:12:08;6.20;;;2.10;;
76552;SDS011;65395;53.168;18.156;2023-03-31T13:14:41;7.30;;;2.40;;
76552;SDS011;65395;53.168;18.156;2023-03-31T13:17:12;7.00;;;2.60;;
76552;SDS011;65395;53.168;18.156;2023-03-31T13:19:47;5.50;;;2.30;;
76552;SDS011;65395;53.168;18.156;2023-03-31T13:25:24;5.60;;;2.10;;
76552;SDS011;65395;53.168;18.156;2023-03-31T13:27:54;7.60;;;2.10;;
76552;SDS011;65395;53.168;18.156;2023-03-31T13:36:22;5.50;;;2.20;;
76552;SDS011;65395;53.168;18.156;2023-03-31T13:47:40;7.60;;;3.10;;
76552;SDS011;65395;53.168;18.156;2023-03-31T13:50:28;5.70;;;3.10;;
76552;SDS011;65395;53.168;18.156;2023-03-31T13:53:08;9.20;;;3.10;;
76552;SDS011;65395;53.168;18.156;2023-03-31T13:55:57;5.00;;;3.30;;
76552;SDS011;65395;53.168;18.156;2023-03-31T13:58:40;8.30;;;4.00;;
76552;SDS011;65395;53.168;18.156;2023-03-31T14:01:36;7.70;;;3.80;;
76552;SDS011;65395;53.168;18.156;2023-03-31T14:04:15;7.80;;;4.20;;
76552;SDS011;65395;53.168;18.156;2023-03-31T14:07:07;10.80;;;4.70;;
76552;SDS011;65395;53.168;18.156;2023-03-31T14:09:39;8.00;;;4.50;;
76552;SDS011;65395;53.168;18.156;2023-03-31T14:12:19;10.50;;;5.00;;
76552;SDS011;65395;53.168;18.156;2023-03-31T14:14:56;10.40;;;5.00;;
76552;SDS011;65395;53.168;18.156;2023-03-31T14:17:25;12.00;;;4.90;;
76552;SDS011;65395;53.168;18.156;2023-03-31T14:19:57;15.30;;;5.20;;
76552;SDS011;65395;53.168;18.156;2023-03-31T14:28:55;8.90;;;4.90;;
76552;SDS011;65395;53.168;18.156;2023-03-31T14:31:34;11.70;;;4.50;;
76552;SDS011;65395;53.168;18.156;2023-03-31T14:34:18;7.90;;;4.60;;
76552;SDS011;65395;53.168;18.156;2023-03-31T14:36:59;8.30;;;4.20;;
76552;SDS011;65395;53.168;18.156;2023-03-31T14:39:30;11.70;;;4.20;;
76552;SDS011;65395;53.168;18.156;2023-03-31T14:42:02;7.60;;;4.00;;
76552;SDS011;65395;53.168;18.156;2023-03-31T14:44:32;8.70;;;3.90;;
76552;SDS011;65395;53.168;18.156;2023-03-31T14:47:00;9.60;;;4.10;;
76552;SDS011;65395;53.168;18.156;2023-03-31T14:49:29;7.50;;;3.80;;
76552;SDS011;65395;53.168;18.156;2023-03-31T14:52:04;9.60;;;4.10;;
76552;SDS011;65395;53.168;18.156;2023-03-31T14:54:39;7.00;;;4.00;;
76552;SDS011;65395;53.168;18.156;2023-03-31T14:57:06;8.40;;;3.80;;
76552;SDS011;65395;53.168;18.156;2023-03-31T14:59:34;9.00;;;4.00;;
76552;SDS011;65395;53.168;18.156;2023-03-31T15:02:03;8.90;;;3.90;;
76552;SDS011;65395;53.168;18.156;2023-03-31T15:04:32;8.30;;;4.00;;
76552;SDS011;65395;53.168;18.156;2023-03-31T15:07:10;7.60;;;3.80;;
76552;SDS011;65395;53.168;18.156;2023-03-31T15:09:37;9.30;;;3.80;;
76552;SDS011;65395;53.168;18.156;2023-03-31T15:12:07;6.00;;;3.80;;
76552;SDS011;65395;53.168;18.156;2023-03-31T15:14:39;10.60;;;4.00;;
76552;SDS011;65395;53.168;18.156;2023-03-31T15:19:55;9.30;;;5.60;;
76552;SDS011;65395;53.168;18.156;2023-03-31T15:22:25;12.00;;;7.20;;
76552;SDS011;65395;53.168;18.156;2023-03-31T15:24:54;12.70;;;6.90;;
76552;SDS011;65395;53.168;18.156;2023-03-31T15:27:31;7.00;;;4.40;;
76552;SDS011;65395;53.168;18.156;2023-03-31T15:30:04;7.30;;;3.20;;
76552;SDS011;65395;53.168;18.156;2023-03-31T15:32:34;8.90;;;3.50;;
76552;SDS011;65395;53.168;18.156;2023-03-31T15:35:03;5.80;;;2.50;;
76552;SDS011;65395;53.168;18.156;2023-03-31T15:37:40;5.50;;;2.40;;
76552;SDS011;65395;53.168;18.156;2023-03-31T15:40:14;4.80;;;2.60;;
76552;SDS011;65395;53.168;18.156;2023-03-31T15:42:46;4.50;;;2.70;;
76552;SDS011;65395;53.168;18.156;2023-03-31T15:45:34;4.40;;;2.50;;
76552;SDS011;65395;53.168;18.156;2023-03-31T15:48:09;4.40;;;2.70;;
76552;SDS011;65395;53.168;18.156;2023-03-31T15:50:43;4.70;;;2.40;;
76552;SDS011;65395;53.168;18.156;2023-03-31T15:55:56;7.80;;;2.60;;
76552;SDS011;65395;53.168;18.156;2023-03-31T16:01:18;6.40;;;3.30;;
76552;SDS011;65395;53.168;18.156;2023-03-31T16:03:46;6.20;;;3.30;;
76552;SDS011;65395;53.168;18.156;2023-03-31T16:06:15;6.90;;;3.00;;
76552;SDS011;65395;53.168;18.156;2023-03-31T16:08:58;5.10;;;3.10;;
76552;SDS011;65395;53.168;18.156;2023-03-31T16:11:33;5.50;;;3.30;;
76552;SDS011;65395;53.168;18.156;2023-03-31T16:14:08;8.00;;;3.60;;
76552;SDS011;65395;53.168;18.156;2023-03-31T16:16:46;8.50;;;3.50;;
76552;SDS011;65395;53.168;18.156;2023-03-31T16:19:16;7.70;;;3.70;;
76552;SDS011;65395;53.168;18.156;2023-03-31T16:21:46;6.30;;;3.30;;
76552;SDS011;65395;53.168;18.156;2023-03-31T16:24:18;7.40;;;3.30;;
76552;SDS011;65395;53.168;18.156;2023-03-31T16:26:47;6.90;;;3.50;;
76552;SDS011;65395;53.168;18.156;2023-03-31T16:29:21;10.00;;;3.80;;
76552;SDS011;65395;53.168;18.156;2023-03-31T16:31:48;7.60;;;3.50;;
76552;SDS011;65395;53.168;18.156;2023-03-31T16:34:15;7.70;;;3.90;;
76552;SDS011;65395;53.168;18.156;2023-03-31T16:36:42;11.30;;;4.10;;
76552;SDS011;65395;53.168;18.156;2023-03-31T16:39:08;10.40;;;4.00;;
76552;SDS011;65395;53.168;18.156;2023-03-31T16:41:35;9.40;;;4.20;;
76552;SDS011;65395;53.168;18.156;2023-03-31T16:44:03;12.40;;;4.60;;